Flight Track Log - Related Links

Times and Time Zones

All times are in EDT time to prevent confusion due to time zone crossing. See the N333HC flight status page for this flight to view local times or setup timezone preferences in your user account.

Time Position Orientation Groundspeed Altitude Reporting Facility
EDT Latitude Longitude Course Direction KTS MPH feet Rate Location/Type
Mon 03:25:03 PM 30.1528 -97.7325 293° West 164 189 5,600  Level Houston Center
Mon 03:26:05 PM 30.1869 -97.7747 313° West 175 201 6,900 1,597 Climbing Houston Center
Mon 03:27:07 PM 30.2225 -97.8206 312° West 185 213 8,900 1,742 Climbing Houston Center
Mon 03:28:09 PM 30.2525 -97.8719 304° West 189 217 10,500 1,597 Climbing Houston Center
Mon 03:29:00 PM 30.4352 -97.7218 293° West  Level FlightAware Approximate
Mon 03:29:11 PM 30.2883 -97.9328 304° West 199 229 12,200  Level Houston Center
Mon 03:30:00 PM 30.4621 -97.7956 293° West  Level FlightAware Approximate
Mon 03:30:13 PM 30.3236 -97.9867 307° West 208 239 13,700  Level Houston Center
Mon 03:31:15 PM 30.3600 -98.0519 303° West 221 254 14,000 1,161 Climbing Houston Center
Mon 03:32:17 PM 30.3889 -98.1200 296° West 230 265 16,100 1,536 Climbing Houston Center
Mon 03:33:20 PM 30.4164 -98.1811 298° West 214 246 17,200 1,104 Climbing Houston Center
Mon 03:34:22 PM 30.4444 -98.2444 297° West 218 251 18,400 1,210 Climbing Houston Center
Mon 03:35:24 PM 30.4722 -98.3083 297° West 220 253 19,700 1,161 Climbing Houston Center
Mon 03:36:26 PM 30.4981 -98.3722 295° West 217 250 20,800 968 Climbing Houston Center
Mon 03:37:28 PM 30.5275 -98.4369 298° West 222 255 21,700 532 Climbing Houston Center
Mon 03:38:30 PM 30.5558 -98.5058 296° West 232 267 21,900 97 Climbing Houston Center
Mon 03:39:32 PM 30.5947 -98.5961 297° West 259 298 21,900  Level Houston Center
Mon 03:40:34 PM 30.6297 -98.6750 297° West 269 310 21,900  Level Houston Center
Mon 03:41:36 PM 30.6639 -98.7542 297° West 271 312 21,900  Level Houston Center
Mon 03:42:39 PM 30.6986 -98.8333 297° West 274 315 21,900  Level Houston Center
Mon 03:43:41 PM 30.7322 -98.9128 296° West 272 313 21,900  Level Houston Center
Mon 03:44:43 PM 30.7661 -98.9942 296° West 276 318 21,900  Level Houston Center
Mon 03:45:45 PM 30.8003 -99.0742 296° West 274 315 21,900  Level Houston Center
Mon 03:46:47 PM 30.8394 -99.1639 297° West 273 314 21,900  Level Houston Center
Mon 03:47:49 PM 30.8731 -99.2431 296° West 273 314 21,900  Level Houston Center
Mon 03:48:51 PM 30.9069 -99.3219 297° West 273 314 21,900  Level Houston Center
Mon 03:49:53 PM 30.9397 -99.4006 296° West 272 313 21,900  Level Houston Center
Mon 03:50:55 PM 30.9778 -99.4917 296° West 263 303 21,900  Level Houston Center
Mon 03:51:58 PM 31.0103 -99.5675 297° West 263 303 21,900  Level Houston Center
Mon 03:53:00 PM 31.0417 -99.6442 296° West 263 303 21,900  Level Houston Center
Mon 03:54:02 PM 31.0736 -99.7233 295° West 267 307 21,900  Level Houston Center
Mon 03:55:04 PM 31.1067 -99.8006 297° West 268 308 21,900  Level Houston Center
Mon 03:56:06 PM 31.1406 -99.8786 297° West 269 310 21,900  Level Houston Center
Mon 03:57:08 PM 31.1794 -99.9736 296° West 269 310 21,900  Level Houston Center
Mon 03:58:10 PM 31.2119 -100.0536 295° West 273 314 21,900  Level Houston Center
Mon 03:59:12 PM 31.2458 -100.1336 296° West 276 318 21,900  Level Houston Center
Mon 04:00:14 PM 31.2786 -100.2136 296° West 275 316 21,900  Level Houston Center
Mon 04:01:17 PM 31.3122 -100.2922 297° West 273 314 21,900  Level Houston Center
Mon 04:02:19 PM 31.3519 -100.3894 296° West 276 318 21,900  Level Houston Center
Mon 04:03:21 PM 31.3844 -100.4703 295° West 276 318 21,900  Level Houston Center
Mon 04:04:23 PM 31.4183 -100.5514 296° West 278 320 21,900 -48 Level Houston Center
Mon 04:05:25 PM 31.4517 -100.6311 296° West 276 318 21,800  Descending Houston Center
Mon 04:06:28 PM 31.4842 -100.7119 295° West 275 316 21,900 43 Climbing Houston Center
Mon 04:07:46 PM 31.5283 -100.8206 296° West 272 313 21,900 -261 Level Fort Worth Center
Mon 04:08:46 PM 31.5594 -100.9019 294° West 277 319 21,300 -950 Descending Fort Worth Center
Mon 04:09:46 PM 31.5925 -100.9861 295° West 282 325 20,000 -1,300 Descending Fort Worth Center
Mon 04:10:46 PM 31.6278 -101.0706 296° West 282 325 18,700 -1,300 Descending Fort Worth Center
Mon 04:11:46 PM 31.6608 -101.1522 295° West 277 319 17,400 -1,250 Descending Fort Worth Center
Mon 04:12:46 PM 31.7022 -101.2297 302° West 277 319 16,200 -1,250 Descending Fort Worth Center
Mon 04:13:46 PM 31.7481 -101.3050 306° West 283 326 14,900 -1,050 Descending Fort Worth Center
Mon 04:14:46 PM 31.7958 -101.3753 309° West 283 326 14,100 -450 Descending Fort Worth Center
Mon 04:15:46 PM 31.8311 -101.4478 300° West 273 314 14,000 -50 Descending Fort Worth Center
Mon 04:16:46 PM 31.8625 -101.5153 299° West 252 290 14,000 -750 Level Fort Worth Center
Mon 04:17:46 PM 31.8936 -101.5850 298° West 246 283 12,500 -1,650 Descending Fort Worth Center
Mon 04:18:46 PM 31.9158 -101.6669 288° West 246 283 10,700 -2,250 Descending Fort Worth Center
Mon 04:19:46 PM 31.9361 -101.7486 286° West 246 283 8,000 -1,950 Descending Fort Worth Center
Mon 04:20:46 PM 31.9606 -101.8183 292° West 246 283 6,800 -1,000 Descending Fort Worth Center
Mon 04:21:46 PM 31.9900 -101.8761 301° West 225 259 6,000 -550 Descending Fort Worth Center
Mon 04:22:46 PM 32.0108 -101.9308 294° West 204 235 5,700 -350 Descending Fort Worth Center
Mon 04:23:46 PM 32.0297 -101.9858 292° West 192 221 5,300 -850 Descending Fort Worth Center
Mon 04:24:46 PM 32.0531 -102.0358 299° West 185 213 4,000 -1,050 Descending Fort Worth Center
Mon 04:25:46 PM 32.0453 -102.0797 258° West 171 197 3,200 -800 Descending Fort Worth Center

Login

Don't have an account? Register now (free) for customized features, flight alerts, and more!